createdAt,value
2024-01-20T00:00:13.714Z,2.00
2024-01-20T00:02:40.494Z,2.00
2024-01-20T00:05:07.708Z,1.98
2024-01-20T00:07:34.366Z,1.96
2024-01-20T00:10:01.031Z,1.93
2024-01-20T00:12:27.745Z,1.93
2024-01-20T00:14:54.327Z,1.90
2024-01-20T00:17:25.112Z,1.88
2024-01-20T00:19:55.064Z,1.83
2024-01-20T00:22:27.430Z,1.80
2024-01-20T00:24:54.172Z,1.78
2024-01-20T00:27:20.934Z,1.79
2024-01-20T00:29:47.507Z,1.75
2024-01-20T00:32:18.030Z,1.72
2024-01-20T00:34:59.916Z,1.69
2024-01-20T00:37:34.048Z,1.67
2024-01-20T00:40:00.490Z,1.64
2024-01-20T00:42:26.972Z,1.60
2024-01-20T00:44:53.421Z,1.53
2024-01-20T00:47:19.880Z,1.51
2024-01-20T00:49:46.474Z,1.47
2024-01-20T00:52:12.976Z,1.48
2024-01-20T00:54:39.586Z,1.48
2024-01-20T00:57:06.161Z,1.49
2024-01-20T00:59:32.706Z,1.49
2024-01-20T01:01:59.346Z,1.47
2024-01-20T01:04:25.918Z,1.45
2024-01-20T01:06:52.429Z,1.43
2024-01-20T01:09:21.187Z,1.38
2024-01-20T01:11:49.829Z,1.35
2024-01-20T01:14:19.969Z,1.34
2024-01-20T01:16:47.501Z,1.33
2024-01-20T01:19:14.102Z,1.33
2024-01-20T01:21:40.590Z,1.31
2024-01-20T01:24:07.169Z,1.26
2024-01-20T01:26:33.980Z,1.25
2024-01-20T01:29:03.453Z,1.22
2024-01-20T01:31:29.908Z,1.20
2024-01-20T01:33:56.383Z,1.21
2024-01-20T01:36:22.920Z,1.13
2024-01-20T01:38:49.342Z,1.18
2024-01-20T01:41:20.467Z,1.17
2024-01-20T01:43:47.651Z,1.18
2024-01-20T01:46:35.086Z,1.17
2024-01-20T01:49:01.926Z,1.14
2024-01-20T01:51:29.363Z,1.12
2024-01-20T01:54:01.588Z,1.10
2024-01-20T01:56:29.441Z,1.13
2024-01-20T01:58:57.235Z,1.12
2024-01-20T02:01:24.261Z,1.14
2024-01-20T02:03:50.957Z,1.14
2024-01-20T02:06:20.512Z,1.14
2024-01-20T02:08:48.010Z,1.13
2024-01-20T02:11:15.938Z,1.13
2024-01-20T02:13:42.705Z,1.07
2024-01-20T02:16:09.988Z,1.06
2024-01-20T02:18:36.608Z,1.01
2024-01-20T02:21:06.658Z,0.97
2024-01-20T02:23:40.275Z,0.93
2024-01-20T02:26:07.183Z,0.92
2024-01-20T02:28:33.778Z,0.89
2024-01-20T02:31:00.256Z,0.77
2024-01-20T02:33:26.768Z,0.82
2024-01-20T02:35:53.349Z,0.83
2024-01-20T02:38:19.851Z,0.78
2024-01-20T02:40:46.306Z,0.77
2024-01-20T02:43:12.958Z,0.74
2024-01-20T02:45:39.454Z,0.73
2024-01-20T02:48:06.551Z,0.74
2024-01-20T02:50:33.202Z,0.74
2024-01-20T02:52:59.710Z,0.75
2024-01-20T02:55:26.235Z,0.74
2024-01-20T02:57:52.654Z,0.72
2024-01-20T03:00:19.091Z,0.71
2024-01-20T03:02:45.602Z,0.72
2024-01-20T03:05:12.468Z,0.71
2024-01-20T03:07:38.982Z,0.70
2024-01-20T03:10:07.711Z,0.67
2024-01-20T03:12:34.186Z,0.67
2024-01-20T03:15:00.772Z,0.67
2024-01-20T03:17:27.290Z,0.68
2024-01-20T03:19:53.820Z,0.66
2024-01-20T03:22:20.245Z,0.68
2024-01-20T03:24:48.522Z,0.67
2024-01-20T03:27:15.413Z,0.68
2024-01-20T03:29:41.919Z,0.69
2024-01-20T03:32:08.524Z,0.72
2024-01-20T03:34:35.188Z,0.70
2024-01-20T03:37:01.873Z,0.70
2024-01-20T03:39:35.380Z,0.70
2024-01-20T03:42:02.022Z,0.71
2024-01-20T03:44:31.421Z,0.72
2024-01-20T03:46:57.928Z,0.71
2024-01-20T03:49:24.588Z,0.69
2024-01-20T03:51:51.238Z,0.63
2024-01-20T03:54:17.907Z,0.61
2024-01-20T03:56:45.407Z,0.57
2024-01-20T03:59:12.096Z,0.55
2024-01-20T04:01:38.660Z,0.55
2024-01-20T04:04:05.830Z,0.55
2024-01-20T04:06:33.189Z,0.57
2024-01-20T04:08:59.760Z,0.56
2024-01-20T04:11:26.235Z,0.54
2024-01-20T04:13:52.692Z,0.51
2024-01-20T04:16:19.323Z,0.50
2024-01-20T04:18:46.011Z,0.49
2024-01-20T04:21:12.512Z,0.48
2024-01-20T04:23:38.994Z,0.47
2024-01-20T04:26:05.717Z,0.44
2024-01-20T04:28:35.247Z,0.43
2024-01-20T04:31:04.750Z,0.43
2024-01-20T04:33:31.773Z,0.41
2024-01-20T04:35:58.346Z,0.40
2024-01-20T04:38:24.800Z,0.38
2024-01-20T04:40:52.267Z,0.36
2024-01-20T04:43:18.737Z,0.39
2024-01-20T04:45:45.497Z,0.41
2024-01-20T04:48:12.375Z,0.38
2024-01-20T04:50:38.983Z,0.36
2024-01-20T04:53:05.561Z,0.36
2024-01-20T04:55:32.004Z,0.36
2024-01-20T04:57:58.473Z,0.37
2024-01-20T05:00:25.014Z,0.40
2024-01-20T05:02:51.661Z,0.42
2024-01-20T05:05:18.158Z,0.39
2024-01-20T05:07:44.771Z,0.37
2024-01-20T05:10:11.393Z,0.35
2024-01-20T05:12:37.972Z,0.37
2024-01-20T05:15:08.435Z,0.35
2024-01-20T05:17:38.479Z,0.37
2024-01-20T05:20:06.647Z,0.36
2024-01-20T05:22:33.350Z,0.39
2024-01-20T05:24:59.919Z,0.38
2024-01-20T05:27:29.244Z,0.39
2024-01-20T05:29:55.766Z,0.35
2024-01-20T05:32:22.412Z,0.35
2024-01-20T05:34:49.318Z,0.35
2024-01-20T05:37:15.844Z,0.35
2024-01-20T05:39:45.344Z,0.32
2024-01-20T05:42:11.901Z,0.31
2024-01-20T05:44:38.405Z,0.31
2024-01-20T05:47:07.314Z,0.31
2024-01-20T05:49:34.218Z,0.31
2024-01-20T05:52:00.656Z,0.32
2024-01-20T05:54:27.105Z,0.30
2024-01-20T05:56:53.587Z,0.29
2024-01-20T05:59:22.988Z,0.29
2024-01-20T06:01:51.712Z,0.30
2024-01-20T06:04:18.828Z,0.32
2024-01-20T06:06:46.910Z,0.31
2024-01-20T06:09:13.529Z,0.32
2024-01-20T06:11:39.999Z,0.28
2024-01-20T06:14:06.882Z,0.29
2024-01-20T06:16:35.179Z,0.26
2024-01-20T06:19:04.213Z,0.27
2024-01-20T06:21:30.759Z,0.29
2024-01-20T06:23:57.243Z,0.30
2024-01-20T06:26:23.704Z,0.29
2024-01-20T06:28:50.756Z,0.29
2024-01-20T06:31:27.565Z,0.28
2024-01-20T06:33:55.085Z,0.26
2024-01-20T06:36:28.057Z,0.24
2024-01-20T06:38:54.741Z,0.27
2024-01-20T06:41:21.400Z,0.22
2024-01-20T06:43:47.997Z,0.22
2024-01-20T06:46:14.774Z,0.25
2024-01-20T06:48:41.355Z,0.24
2024-01-20T06:51:07.993Z,0.24
2024-01-20T06:53:34.390Z,0.25
2024-01-20T06:56:00.838Z,0.24
2024-01-20T06:58:27.333Z,0.26
2024-01-20T07:00:53.956Z,0.26
2024-01-20T07:03:24.564Z,0.27
2024-01-20T07:05:51.252Z,0.24
2024-01-20T07:08:20.770Z,0.28
2024-01-20T07:10:47.456Z,0.28
2024-01-20T07:13:13.919Z,0.29
2024-01-20T07:15:40.804Z,0.32
2024-01-20T07:18:07.611Z,0.31
2024-01-20T07:20:34.132Z,0.33
2024-01-20T07:23:01.165Z,0.32
2024-01-20T07:25:27.877Z,0.31
2024-01-20T07:27:54.623Z,0.29
2024-01-20T07:30:21.605Z,0.31
2024-01-20T07:32:48.318Z,0.33
2024-01-20T07:35:17.549Z,0.33
2024-01-20T07:37:46.328Z,0.38
2024-01-20T07:40:13.270Z,0.39
2024-01-20T07:42:41.579Z,0.41
2024-01-20T07:45:12.284Z,0.47
2024-01-20T07:47:38.974Z,0.53
2024-01-20T07:50:06.157Z,0.56
2024-01-20T07:52:32.948Z,0.57
2024-01-20T07:54:59.532Z,0.59
2024-01-20T07:57:26.224Z,0.60
2024-01-20T07:59:52.671Z,0.65
2024-01-20T08:02:19.677Z,0.67
2024-01-20T08:04:46.808Z,0.72
2024-01-20T08:07:13.943Z,0.73
2024-01-20T08:09:40.844Z,0.76
2024-01-20T08:12:08.001Z,0.76
2024-01-20T08:14:34.977Z,0.77
2024-01-20T08:17:01.557Z,0.81
2024-01-20T08:19:29.896Z,0.77
2024-01-20T08:21:57.109Z,0.85
2024-01-20T08:24:25.542Z,0.89
2024-01-20T08:26:52.901Z,0.99
2024-01-20T08:29:21.239Z,0.99
2024-01-20T08:31:50.976Z,0.97
2024-01-20T08:34:21.189Z,0.95
2024-01-20T08:36:48.445Z,0.93
2024-01-20T08:39:18.467Z,1.03
2024-01-20T08:41:45.160Z,1.10
2024-01-20T08:44:11.990Z,1.05
2024-01-20T08:46:38.815Z,1.02
2024-01-20T08:49:08.703Z,1.00
2024-01-20T08:51:35.497Z,0.97
2024-01-20T08:54:02.422Z,0.93
2024-01-20T08:56:29.198Z,0.87
2024-01-20T08:58:56.000Z,0.91
2024-01-20T09:01:22.592Z,0.89
2024-01-20T09:03:49.301Z,0.93
2024-01-20T09:06:19.844Z,0.97
2024-01-20T09:08:46.672Z,0.95
2024-01-20T09:11:13.639Z,1.00
2024-01-20T09:13:40.364Z,0.98
2024-01-20T09:16:07.462Z,0.97
2024-01-20T09:18:37.155Z,0.99
2024-01-20T09:21:04.029Z,1.01
2024-01-20T09:23:30.580Z,1.02
2024-01-20T09:25:57.327Z,1.04
2024-01-20T09:28:23.885Z,1.07
2024-01-20T09:30:50.859Z,1.06
2024-01-20T09:33:17.755Z,1.13
2024-01-20T09:35:47.021Z,1.21
2024-01-20T09:38:13.825Z,1.31
2024-01-20T09:40:40.883Z,1.47
2024-01-20T09:43:08.328Z,1.54
2024-01-20T09:45:40.348Z,1.67
2024-01-20T09:48:08.617Z,1.75
2024-01-20T09:50:36.046Z,1.87
2024-01-20T09:53:15.734Z,2.04
2024-01-20T09:55:43.948Z,2.22
2024-01-20T09:58:14.555Z,2.44
2024-01-20T10:00:42.356Z,2.60
2024-01-20T10:03:10.899Z,2.70
2024-01-20T10:05:38.342Z,2.80
2024-01-20T10:08:08.567Z,2.82
2024-01-20T10:10:35.680Z,2.82
2024-01-20T10:13:02.658Z,2.84
2024-01-20T10:15:34.063Z,2.85
2024-01-20T10:18:06.510Z,2.82
2024-01-20T10:20:35.258Z,2.79
2024-01-20T10:23:03.646Z,2.78
2024-01-20T10:25:30.482Z,2.74
2024-01-20T10:27:57.071Z,2.82
2024-01-20T10:30:24.454Z,2.85
2024-01-20T10:35:20.810Z,2.92
2024-01-20T10:37:50.031Z,3.05
2024-01-20T10:40:16.836Z,3.40
2024-01-20T10:42:48.722Z,3.99
2024-01-20T10:45:19.290Z,4.65
2024-01-20T10:48:00.130Z,5.34
2024-01-20T10:50:29.770Z,5.85
2024-01-20T10:52:56.797Z,6.19
2024-01-20T10:55:23.689Z,6.36
2024-01-20T10:57:51.059Z,6.43
2024-01-20T11:00:19.034Z,6.30
2024-01-20T11:02:46.701Z,6.14
2024-01-20T11:05:23.095Z,5.80
2024-01-20T11:08:23.256Z,5.52
2024-01-20T11:10:53.005Z,5.26
2024-01-20T11:13:19.503Z,5.13
2024-01-20T11:15:51.391Z,5.17
2024-01-20T11:18:22.073Z,5.21
2024-01-20T11:20:58.901Z,5.29
2024-01-20T11:23:26.470Z,5.32
2024-01-20T11:25:53.021Z,5.26
2024-01-20T11:28:34.896Z,5.16
2024-01-20T11:31:01.869Z,5.05
2024-01-20T11:33:28.627Z,4.97
2024-01-20T11:35:55.184Z,4.81
2024-01-20T11:38:22.348Z,4.63
2024-01-20T11:41:02.647Z,4.50
2024-01-20T11:43:29.426Z,4.42
2024-01-20T11:45:59.170Z,4.51
2024-01-20T11:48:26.724Z,4.65
2024-01-20T11:50:53.952Z,4.95
2024-01-20T11:53:23.835Z,5.24
2024-01-20T11:56:03.076Z,5.47
2024-01-20T11:58:31.269Z,5.70
2024-01-20T12:00:59.283Z,5.85
2024-01-20T12:03:28.085Z,6.01
2024-01-20T12:05:55.509Z,6.14
2024-01-20T12:08:22.461Z,6.48
2024-01-20T12:10:50.290Z,6.88
2024-01-20T12:13:17.791Z,7.29
2024-01-20T12:15:46.757Z,7.75
2024-01-20T12:18:13.497Z,8.11
2024-01-20T12:20:41.159Z,8.46
2024-01-20T12:23:07.794Z,8.50
2024-01-20T12:25:37.224Z,8.36
2024-01-20T12:28:04.282Z,8.23
2024-01-20T12:30:30.890Z,8.13
2024-01-20T12:32:57.974Z,8.20
2024-01-20T12:35:24.811Z,8.46
2024-01-20T12:37:51.308Z,8.77
2024-01-20T12:40:17.877Z,9.14
2024-01-20T12:42:44.432Z,9.71
2024-01-20T12:45:12.933Z,10.10
2024-01-20T12:47:40.045Z,10.43
2024-01-20T12:50:07.530Z,10.86
2024-01-20T12:52:34.720Z,10.84
2024-01-20T12:55:01.291Z,10.53
2024-01-20T12:57:27.828Z,9.95
2024-01-20T12:59:54.793Z,9.34
2024-01-20T13:02:21.539Z,8.63
2024-01-20T13:04:48.205Z,8.06
2024-01-20T13:07:15.499Z,7.67
2024-01-20T13:09:42.704Z,7.35
2024-01-20T13:12:09.733Z,7.13
2024-01-20T13:14:36.654Z,7.06
2024-01-20T13:17:04.035Z,7.44
2024-01-20T13:19:31.105Z,7.86
2024-01-20T13:21:58.408Z,8.12
2024-01-20T13:24:25.265Z,8.42
2024-01-20T13:26:51.837Z,8.75
2024-01-20T13:29:18.600Z,8.87
2024-01-20T13:31:45.213Z,8.92
2024-01-20T13:34:11.865Z,9.02
2024-01-20T13:36:38.581Z,9.06
2024-01-20T13:39:06.341Z,9.07
2024-01-20T13:41:34.675Z,9.10
2024-01-20T13:44:01.290Z,9.17
2024-01-20T13:46:27.834Z,9.23
2024-01-20T13:48:54.606Z,9.31
2024-01-20T13:51:22.956Z,9.28
2024-01-20T13:53:49.569Z,9.09
2024-01-20T13:56:16.070Z,8.80
2024-01-20T13:58:42.664Z,8.43
2024-01-20T14:01:09.534Z,8.04
2024-01-20T14:03:36.435Z,7.69
2024-01-20T14:06:03.867Z,7.40
2024-01-20T14:08:30.627Z,7.13
2024-01-20T14:10:57.108Z,6.94
2024-01-20T14:13:23.647Z,6.83
2024-01-20T14:15:51.756Z,6.76
2024-01-20T14:18:18.610Z,6.64
2024-01-20T14:20:45.377Z,6.51
2024-01-20T14:23:12.253Z,6.37
2024-01-20T14:25:38.804Z,6.19
2024-01-20T14:28:09.781Z,6.11
2024-01-20T14:30:36.445Z,6.02
2024-01-20T14:33:04.171Z,5.88
2024-01-20T14:35:30.863Z,5.71
2024-01-20T14:37:57.774Z,5.58
2024-01-20T14:40:24.779Z,5.56
2024-01-20T14:42:51.866Z,5.48
2024-01-20T14:45:19.602Z,5.46
2024-01-20T14:47:48.578Z,5.40
2024-01-20T14:50:15.469Z,5.32
2024-01-20T14:52:41.986Z,5.22
2024-01-20T14:55:09.081Z,5.18
2024-01-20T14:57:38.345Z,5.14
2024-01-20T15:00:08.651Z,5.04
2024-01-20T15:02:36.018Z,4.99
2024-01-20T15:05:02.987Z,4.99
2024-01-20T15:07:32.382Z,4.95
2024-01-20T15:10:00.729Z,4.88
2024-01-20T15:12:30.616Z,4.81
2024-01-20T15:14:58.628Z,4.77
2024-01-20T15:17:25.258Z,4.73
2024-01-20T15:19:51.896Z,4.71
2024-01-20T15:22:19.286Z,4.65
2024-01-20T15:24:45.986Z,4.61
2024-01-20T15:27:12.936Z,4.57
2024-01-20T15:29:39.670Z,4.49
2024-01-20T15:32:06.790Z,4.43
2024-01-20T15:34:33.403Z,4.35
2024-01-20T15:37:00.098Z,4.26
2024-01-20T15:39:26.996Z,4.20
2024-01-20T15:41:53.851Z,4.19
2024-01-20T15:44:20.401Z,4.16
2024-01-20T15:46:47.131Z,4.18
2024-01-20T15:49:15.349Z,4.07
2024-01-20T15:51:43.662Z,4.01
2024-01-20T15:54:10.670Z,4.00
2024-01-20T15:56:42.569Z,3.94
2024-01-20T15:59:09.355Z,3.84
2024-01-20T16:01:36.014Z,3.77
2024-01-20T16:04:04.107Z,3.67
2024-01-20T16:06:31.227Z,3.61
2024-01-20T16:08:58.052Z,3.59
2024-01-20T16:11:28.241Z,3.61
2024-01-20T16:13:54.893Z,3.59
2024-01-20T16:16:21.877Z,3.59
2024-01-20T16:18:49.103Z,3.55
2024-01-20T16:21:41.381Z,3.52
2024-01-20T16:24:08.224Z,3.47
2024-01-20T16:26:34.771Z,3.43
2024-01-20T16:29:01.254Z,3.36
2024-01-20T16:31:28.580Z,3.34
2024-01-20T16:33:56.979Z,3.38
2024-01-20T16:36:23.976Z,3.35
2024-01-20T16:38:53.734Z,3.37
2024-01-20T16:41:20.531Z,3.39
2024-01-20T16:43:47.544Z,3.33
2024-01-20T16:46:14.091Z,3.33
2024-01-20T16:48:43.630Z,3.35
2024-01-20T16:51:15.329Z,3.34
2024-01-20T16:53:49.184Z,3.32
2024-01-20T16:56:15.665Z,3.29
2024-01-20T16:58:42.251Z,3.32
2024-01-20T17:01:09.051Z,3.32
2024-01-20T17:03:36.239Z,3.29
2024-01-20T17:06:02.925Z,3.28
2024-01-20T17:08:29.514Z,3.26
2024-01-20T17:10:56.061Z,3.21
2024-01-20T17:13:22.676Z,3.18
2024-01-20T17:15:49.286Z,3.16
2024-01-20T17:18:18.638Z,3.13
2024-01-20T17:20:45.406Z,3.11
2024-01-20T17:23:12.644Z,3.10
2024-01-20T17:25:39.101Z,3.06
2024-01-20T17:28:05.784Z,3.00
2024-01-20T17:30:32.269Z,2.96
2024-01-20T17:32:58.787Z,2.88
2024-01-20T17:35:25.401Z,2.84
2024-01-20T17:37:54.606Z,2.82
2024-01-20T17:40:21.542Z,2.71
2024-01-20T17:42:48.058Z,2.68
2024-01-20T17:45:16.315Z,2.66
2024-01-20T17:47:45.607Z,2.61
2024-01-20T17:50:12.720Z,2.59
2024-01-20T17:52:42.132Z,2.56
2024-01-20T17:55:08.977Z,2.56
2024-01-20T17:57:35.540Z,2.59
2024-01-20T18:00:02.199Z,2.60
2024-01-20T18:02:28.702Z,2.67
2024-01-20T18:04:55.686Z,2.70
2024-01-20T18:07:22.282Z,2.66
2024-01-20T18:09:48.744Z,2.70
2024-01-20T18:12:15.345Z,2.63
2024-01-20T18:14:41.960Z,2.58
2024-01-20T18:17:09.906Z,2.60
2024-01-20T18:19:36.649Z,2.64
2024-01-20T18:22:03.526Z,2.69
2024-01-20T18:24:30.200Z,2.62
2024-01-20T18:26:56.889Z,2.63
2024-01-20T18:29:23.328Z,2.57
2024-01-20T18:31:50.138Z,2.54
2024-01-20T18:34:17.262Z,2.45
2024-01-20T18:36:43.954Z,2.34
2024-01-20T18:39:10.570Z,2.31
2024-01-20T18:41:37.050Z,2.29
2024-01-20T18:44:06.545Z,2.20
2024-01-20T18:46:36.063Z,2.22
2024-01-20T18:49:02.770Z,2.18
2024-01-20T18:51:31.901Z,2.21
2024-01-20T18:53:58.386Z,2.16
2024-01-20T18:56:25.116Z,2.17
2024-01-20T18:58:51.676Z,2.22
2024-01-20T19:01:18.216Z,2.18
2024-01-20T19:03:45.533Z,2.16
2024-01-20T19:06:12.546Z,2.19
2024-01-20T19:08:39.168Z,2.22
2024-01-20T19:11:08.382Z,2.27
2024-01-20T19:13:34.886Z,2.25
2024-01-20T19:16:03.036Z,2.28
2024-01-20T19:18:29.883Z,2.28
2024-01-20T19:20:56.620Z,2.25
2024-01-20T19:23:23.284Z,2.19
2024-01-20T19:25:49.736Z,2.18
2024-01-20T19:28:16.257Z,2.15
2024-01-20T19:30:42.700Z,2.14
2024-01-20T19:33:09.731Z,2.17
2024-01-20T19:35:36.373Z,2.14
2024-01-20T19:38:03.643Z,2.18
2024-01-20T19:40:30.537Z,2.17
2024-01-20T19:42:57.260Z,2.05
2024-01-20T19:45:23.918Z,2.09
2024-01-20T19:47:50.609Z,2.10
2024-01-20T19:50:17.763Z,2.14
2024-01-20T19:52:44.376Z,2.12
2024-01-20T19:55:11.065Z,2.18
2024-01-20T19:57:37.813Z,2.23
2024-01-20T20:00:05.602Z,2.22
2024-01-20T20:02:40.282Z,2.19
2024-01-20T20:05:07.144Z,2.16
2024-01-20T20:07:36.748Z,2.16
2024-01-20T20:10:04.094Z,2.12
2024-01-20T20:12:31.947Z,2.08
2024-01-20T20:14:58.778Z,2.13
2024-01-20T20:17:25.626Z,2.11
2024-01-20T20:19:52.198Z,2.06
2024-01-20T20:22:18.798Z,2.04
2024-01-20T20:24:46.310Z,2.03
2024-01-20T20:27:13.260Z,2.02
2024-01-20T20:29:40.232Z,1.95
2024-01-20T20:32:07.362Z,1.93
2024-01-20T20:34:34.267Z,1.88
2024-01-20T20:37:01.208Z,1.82
2024-01-20T20:39:30.904Z,1.75
2024-01-20T20:41:58.231Z,1.79
2024-01-20T20:44:24.723Z,1.78
2024-01-20T20:47:01.666Z,1.73
2024-01-20T20:49:29.279Z,1.67
2024-01-20T20:51:55.952Z,1.66
2024-01-20T20:54:22.845Z,1.58
2024-01-20T20:56:49.542Z,1.55
2024-01-20T20:59:16.458Z,1.51
2024-01-20T21:01:44.429Z,1.50
2024-01-20T21:04:11.690Z,1.57
2024-01-20T21:06:39.177Z,1.61
2024-01-20T21:09:06.905Z,1.65
2024-01-20T21:11:33.502Z,1.67
2024-01-20T21:14:00.468Z,1.65
2024-01-20T21:16:30.439Z,1.60
2024-01-20T21:18:58.115Z,1.61
2024-01-20T21:21:24.886Z,1.53
2024-01-20T21:23:51.506Z,1.57
2024-01-20T21:26:22.788Z,1.58
2024-01-20T21:28:49.854Z,1.56
2024-01-20T21:31:17.086Z,1.60
2024-01-20T21:33:45.043Z,1.59
2024-01-20T21:36:12.143Z,1.60
2024-01-20T21:38:42.643Z,1.59
2024-01-20T21:41:11.930Z,1.62
2024-01-20T21:43:38.435Z,1.62
2024-01-20T21:46:05.041Z,1.63
2024-01-20T21:48:31.658Z,1.61
2024-01-20T21:50:58.562Z,1.62
2024-01-20T21:53:25.260Z,1.62
2024-01-20T21:55:51.849Z,1.66
2024-01-20T21:58:18.436Z,1.73
2024-01-20T22:00:44.995Z,1.73
2024-01-20T22:03:11.636Z,1.70
2024-01-20T22:05:39.278Z,1.72
2024-01-20T22:08:06.093Z,1.76
2024-01-20T22:10:33.410Z,1.78
2024-01-20T22:12:59.990Z,1.83
2024-01-20T22:15:26.559Z,1.86
2024-01-20T22:17:53.421Z,1.90
2024-01-20T22:20:20.030Z,1.89
2024-01-20T22:22:46.617Z,1.91
2024-01-20T22:25:14.339Z,1.90
2024-01-20T22:27:40.934Z,1.88
2024-01-20T22:30:10.137Z,1.92
2024-01-20T22:32:40.484Z,1.94
2024-01-20T22:35:07.528Z,1.93
2024-01-20T22:37:34.187Z,1.93
2024-01-20T22:40:03.064Z,1.95
2024-01-20T22:42:29.576Z,1.92
2024-01-20T22:44:56.170Z,1.91
2024-01-20T22:47:23.447Z,1.90
2024-01-20T22:49:50.877Z,1.90
2024-01-20T22:52:17.468Z,1.86
2024-01-20T22:54:45.166Z,1.86
2024-01-20T22:57:12.022Z,1.87
2024-01-20T22:59:38.639Z,1.89
2024-01-20T23:02:05.748Z,1.92
2024-01-20T23:04:32.513Z,1.96
2024-01-20T23:06:59.669Z,1.96
2024-01-20T23:09:27.939Z,2.00
2024-01-20T23:11:55.291Z,2.03
2024-01-20T23:14:22.185Z,2.06
2024-01-20T23:16:48.997Z,2.01
2024-01-20T23:19:15.606Z,2.05
2024-01-20T23:21:42.131Z,2.06
2024-01-20T23:24:09.054Z,2.05
2024-01-20T23:26:36.148Z,2.02
2024-01-20T23:29:02.655Z,2.00
2024-01-20T23:31:29.194Z,2.00
2024-01-20T23:33:55.694Z,2.02
2024-01-20T23:36:22.229Z,2.01
2024-01-20T23:38:48.666Z,1.98
2024-01-20T23:41:15.423Z,1.96
2024-01-20T23:43:42.971Z,2.02
2024-01-20T23:46:11.380Z,1.96
2024-01-20T23:48:37.983Z,1.94
2024-01-20T23:51:05.032Z,1.88
2024-01-20T23:53:32.502Z,1.87
2024-01-20T23:55:59.013Z,1.81
2024-01-20T23:58:25.591Z,1.83
